»·PEaware :: AAL2783 KPSP-KABQ

AAL2783 :: KPSP-KABQ

FLIGHT INFORMATION

Flight Status: Arrived
Operator:
American Airlines
More flights by this operator :: More flights under this callsign
Pilot: Hunter B. (17602)
Aircraft: AIRBUS A320
(A320)
More flights by this aircraft type
Origin: KPSP Palm Springs Intl
United States
Destination: KABQ Albuquerque Intl Sunport
United States
More flights between these airports :: More routes between these airports
Route: +CATH1 PSP BLH SJN LAVAN3
File this flight plan on PilotEdge
Remarks: PBN / A1B1C1D1O1S1 DOF / 171219 REG / N320SB EET / KZAB0019 OPR / AAL PER / C RMK / TCAS SIMBRIEF
Altitude:
(Current/Filed)
37,000ft
Speed:
(Current/Filed)
454kts
Departed: 18-Dec-17 04:40 PM
Arrived: 18-Dec-17 06:01 PM
Distance/Time
Traveled:
495nm/1:21
Distance/Time
To Go:
Arrived

Flight Plot

Page will automatically refresh every two minutes.

Flight plan parsing failed; only flown route is shown


Map Options




Map Legend


Flown Route
Filed Route
Departure Airport
Arrival Airport
Navaid (VOR, NDB)
Fix

Horizontal Profiles

Position Reports

Time Latitude Longitude Heading Altitude Ground
Speed
18-Dec-17 16:18 33.823713 -116.506186 226 417ft 0kts
18-Dec-17 16:19 33.823713 -116.506186 226 417ft 0kts
18-Dec-17 16:20 33.823713 -116.506186 226 417ft 0kts
18-Dec-17 16:21 33.823713 -116.506186 226 417ft 0kts
18-Dec-17 16:22 33.823713 -116.506186 226 417ft 0kts
18-Dec-17 16:23 33.823713 -116.506186 226 417ft 0kts
18-Dec-17 16:24 33.823713 -116.506186 226 417ft 0kts
18-Dec-17 16:25 33.823713 -116.506186 226 417ft 0kts
18-Dec-17 16:26 33.823713 -116.506186 226 417ft 0kts
18-Dec-17 16:27 33.823713 -116.506186 226 417ft 0kts
18-Dec-17 16:28 33.823713 -116.506186 226 417ft 0kts
18-Dec-17 16:29 33.823713 -116.506186 226 417ft 0kts
18-Dec-17 16:30 33.823713 -116.506186 226 417ft 0kts
18-Dec-17 16:31 33.823713 -116.506186 226 417ft 0kts
18-Dec-17 16:32 33.823713 -116.506186 226 417ft 0kts
18-Dec-17 16:33 33.823713 -116.506186 226 417ft 0kts
18-Dec-17 16:34 33.823713 -116.506186 226 417ft 0kts
18-Dec-17 16:35 33.823713 -116.506186 226 417ft 0kts
18-Dec-17 16:36 33.823713 -116.506186 226 417ft 0kts
18-Dec-17 16:37 33.823713 -116.506186 226 417ft 0kts
18-Dec-17 16:38 33.823772 -116.506109 226 417ft 2kts
18-Dec-17 16:39 33.824135 -116.505745 182 418ft 2kts
18-Dec-17 16:40 33.824350 -116.505838 142 418ft 0kts
18-Dec-17 16:41 33.824350 -116.505838 142 418ft 0kts
18-Dec-17 16:42 33.824216 -116.505718 142 418ft 6kts
18-Dec-17 16:43 33.821386 -116.502310 143 409ft 17kts
18-Dec-17 16:44 33.818530 -116.498772 86 400ft 0kts
18-Dec-17 16:45 33.819112 -116.498300 335 400ft 11kts
18-Dec-17 16:46 33.840822 -116.517886 322 1072ft 189kts
18-Dec-17 16:47 33.870928 -116.545984 322 3197ft 207kts
18-Dec-17 16:48 33.927199 -116.570733 26 5278ft 270kts
18-Dec-17 16:49 33.941582 -116.477358 100 8946ft 282kts
18-Dec-17 16:50 33.924972 -116.390163 100 11182ft 315kts
18-Dec-17 16:51 33.907882 -116.302064 100 12566ft 354kts
18-Dec-17 16:52 33.887614 -116.198358 100 14746ft 365kts
18-Dec-17 16:53 33.859869 -116.057359 100 17286ft 380kts
18-Dec-17 16:54 33.839344 -115.953729 100 18902ft 389kts
18-Dec-17 16:55 33.813788 -115.825366 100 20683ft 400kts
18-Dec-17 16:56 33.793691 -115.724957 99 21928ft 409kts
18-Dec-17 16:57 33.766756 -115.591086 99 23433ft 419kts
18-Dec-17 16:58 33.738948 -115.453708 99 24810ft 428kts
18-Dec-17 16:59 33.710662 -115.314829 100 26060ft 437kts
18-Dec-17 17:00 33.681572 -115.172890 100 27221ft 445kts
18-Dec-17 17:01 33.651860 -115.028822 99 28458ft 448kts
18-Dec-17 17:02 33.621868 -114.884283 98 29591ft 451kts
18-Dec-17 17:03 33.601575 -114.737376 79 30450ft 444kts
18-Dec-17 17:04 33.624768 -114.593444 73 31473ft 439kts
18-Dec-17 17:05 33.648925 -114.450981 72 32540ft 436kts
18-Dec-17 17:06 33.671735 -114.315482 73 33423ft 434kts
18-Dec-17 17:07 33.694843 -114.177259 73 34274ft 432kts
18-Dec-17 17:08 33.716534 -114.046607 72 34989ft 431kts
18-Dec-17 17:09 33.739759 -113.905693 72 35686ft 430kts
18-Dec-17 17:10 33.762733 -113.765297 72 36289ft 430kts
18-Dec-17 17:11 33.785599 -113.624501 72 36814ft 430kts
18-Dec-17 17:12 33.808315 -113.483546 72 37219ft 430kts
18-Dec-17 17:13 33.830651 -113.343928 73 37238ft 428kts
18-Dec-17 17:14 33.852705 -113.204997 73 37240ft 429kts
18-Dec-17 17:15 33.874589 -113.066093 73 37241ft 429kts
18-Dec-17 17:16 33.896514 -112.925835 73 37286ft 426kts
18-Dec-17 17:17 33.917765 -112.788854 73 37319ft 416kts
18-Dec-17 17:18 33.938345 -112.655224 73 37234ft 408kts
18-Dec-17 17:19 33.958503 -112.523328 73 37167ft 404kts
18-Dec-17 17:20 33.978426 -112.391975 73 37175ft 404kts
18-Dec-17 17:21 33.998109 -112.261234 74 37189ft 405kts
18-Dec-17 17:22 34.017980 -112.128238 74 37228ft 408kts
18-Dec-17 17:23 34.037753 -111.994886 74 37254ft 409kts
18-Dec-17 17:24 34.057298 -111.862039 74 37260ft 409kts
18-Dec-17 17:25 34.076893 -111.727808 74 37283ft 409kts
18-Dec-17 17:26 34.096325 -111.593632 74 37310ft 409kts
18-Dec-17 17:27 34.115533 -111.459942 74 37315ft 410kts
18-Dec-17 17:28 34.134633 -111.325923 74 37312ft 411kts
18-Dec-17 17:29 34.153835 -111.190093 74 37310ft 411kts
18-Dec-17 17:30 34.172577 -111.056344 75 37300ft 411kts
18-Dec-17 17:31 34.191362 -110.921229 76 37262ft 414kts
18-Dec-17 17:32 34.210019 -110.785888 76 37277ft 418kts
18-Dec-17 17:33 34.228823 -110.648325 76 37339ft 420kts
18-Dec-17 17:34 34.247536 -110.510214 76 37356ft 421kts
18-Dec-17 17:35 34.266116 -110.371734 76 37350ft 420kts
18-Dec-17 17:36 34.284362 -110.235058 76 37334ft 420kts
18-Dec-17 17:37 34.302613 -110.097480 76 37327ft 420kts
18-Dec-17 17:38 34.320815 -109.958107 76 37323ft 420kts
18-Dec-17 17:39 34.338816 -109.819147 76 37308ft 419kts
18-Dec-17 17:40 34.356644 -109.680324 76 37287ft 419kts
18-Dec-17 17:41 34.374328 -109.541370 76 37279ft 419kts
18-Dec-17 17:42 34.391915 -109.401867 76 37278ft 419kts
18-Dec-17 17:43 34.409196 -109.263500 77 36831ft 418kts
18-Dec-17 17:44 34.428456 -109.125152 71 35693ft 421kts
18-Dec-17 17:45 34.461179 -108.985618 72 34682ft 441kts
18-Dec-17 17:46 34.494734 -108.841941 72 33905ft 446kts
18-Dec-17 17:47 34.528212 -108.697869 72 33172ft 446kts
18-Dec-17 17:48 34.561763 -108.552563 72 32506ft 449kts
18-Dec-17 17:49 34.595228 -108.406778 72 31870ft 447kts
18-Dec-17 17:50 34.627023 -108.267518 73 30024ft 433kts
18-Dec-17 17:51 34.658444 -108.129040 73 28040ft 421kts
18-Dec-17 17:52 34.688945 -107.993850 73 26062ft 410kts
18-Dec-17 17:53 34.718533 -107.861988 73 24339ft 406kts
18-Dec-17 17:54 34.748160 -107.729151 73 24266ft 407kts
18-Dec-17 17:55 34.777985 -107.594670 74 21832ft 415kts
18-Dec-17 17:56 34.807075 -107.462929 74 18529ft 396kts
18-Dec-17 17:57 34.834648 -107.337300 75 15874ft 379kts
18-Dec-17 17:58 34.872952 -107.221606 62 13799ft 369kts
18-Dec-17 17:59 34.918153 -107.114924 62 10981ft 338kts
18-Dec-17 18:00 34.958243 -107.020015 62 10040ft 286kts
18-Dec-17 18:01 34.994413 -106.934058 62 8618ft 288kts
18-Dec-17 18:02 35.029298 -106.850957 62 7711ft 259kts
18-Dec-17 18:03 35.045754 -106.773108 91 7030ft 240kts
18-Dec-17 18:04 35.044909 -106.700532 90 6527ft 203kts
18-Dec-17 18:05 35.044458 -106.640018 90 5654ft 159kts
18-Dec-17 18:06 35.044199 -106.597375 90 5325ft 50kts
18-Dec-17 18:07 35.045135 -106.591335 54 5331ft 2kts
18-Dec-17 18:08 35.045846 -106.594686 270 5328ft 16kts
18-Dec-17 18:09 35.045740 -106.600228 268 5324ft 16kts
18-Dec-17 18:10 35.045780 -106.605468 270 5324ft 15kts
18-Dec-17 18:11 35.045805 -106.610852 270 5321ft 16kts
18-Dec-17 18:12 35.045693 -106.615888 318 5316ft 9kts
18-Dec-17 18:13 35.046951 -106.615892 12 5315ft 0kts
18-Dec-17 18:14 35.046951 -106.615892 12 5315ft 0kts

Navigation Log

Ident Type
Flight plan parsing failed, navigation log unavailable